sensor_id;sensor_type;location;lat;lon;timestamp;pressure;altitude;pressure_sealevel;temperature;humidity
35419;BME280;21525;41.240;16.500;2023-08-08T00:01:24;101214.63;;;29.18;49.08
35419;BME280;21525;41.240;16.500;2023-08-08T00:03:50;101215.28;;;29.31;49.03
35419;BME280;21525;41.240;16.500;2023-08-08T00:06:16;101215.03;;;29.02;49.05
35419;BME280;21525;41.240;16.500;2023-08-08T00:08:42;101218.41;;;29.15;49.26
35419;BME280;21525;41.240;16.500;2023-08-08T00:11:07;101218.91;;;29.09;48.90
35419;BME280;21525;41.240;16.500;2023-08-08T00:13:33;101221.22;;;29.14;48.87
35419;BME280;21525;41.240;16.500;2023-08-08T00:15:59;101221.94;;;29.16;49.05
35419;BME280;21525;41.240;16.500;2023-08-08T00:18:25;101221.81;;;29.17;48.86
35419;BME280;21525;41.240;16.500;2023-08-08T00:20:51;101216.22;;;29.20;48.17
35419;BME280;21525;41.240;16.500;2023-08-08T00:23:16;101216.31;;;28.75;49.20
35419;BME280;21525;41.240;16.500;2023-08-08T00:25:42;101217.28;;;28.63;49.67
35419;BME280;21525;41.240;16.500;2023-08-08T00:28:08;101221.41;;;28.79;49.58
35419;BME280;21525;41.240;16.500;2023-08-08T00:30:33;101218.75;;;28.90;49.01
35419;BME280;21525;41.240;16.500;2023-08-08T00:32:59;101212.59;;;28.56;49.48
35419;BME280;21525;41.240;16.500;2023-08-08T00:35:25;101219.22;;;28.72;49.45
35419;BME280;21525;41.240;16.500;2023-08-08T00:37:51;101225.19;;;28.76;48.97
35419;BME280;21525;41.240;16.500;2023-08-08T00:40:17;101225.56;;;28.83;48.57
35419;BME280;21525;41.240;16.500;2023-08-08T00:42:43;101220.44;;;28.68;48.57
35419;BME280;21525;41.240;16.500;2023-08-08T00:45:09;101223.72;;;28.72;48.43
35419;BME280;21525;41.240;16.500;2023-08-08T00:47:35;101232.50;;;28.74;48.30
35419;BME280;21525;41.240;16.500;2023-08-08T00:50:02;101228.75;;;28.54;48.58
35419;BME280;21525;41.240;16.500;2023-08-08T00:52:29;101237.28;;;28.26;49.59
35419;BME280;21525;41.240;16.500;2023-08-08T00:54:55;101238.00;;;28.39;48.84
35419;BME280;21525;41.240;16.500;2023-08-08T00:57:21;101232.84;;;27.91;49.58
35419;BME280;21525;41.240;16.500;2023-08-08T00:59:47;101240.53;;;28.18;49.60
35419;BME280;21525;41.240;16.500;2023-08-08T01:02:14;101242.75;;;28.35;49.19
35419;BME280;21525;41.240;16.500;2023-08-08T01:04:40;101244.31;;;28.38;49.07
35419;BME280;21525;41.240;16.500;2023-08-08T01:10:02;101240.06;;;28.47;49.38
35419;BME280;21525;41.240;16.500;2023-08-08T01:12:40;101249.94;;;28.46;49.45
35419;BME280;21525;41.240;16.500;2023-08-08T01:15:09;101250.16;;;28.32;49.46
35419;BME280;21525;41.240;16.500;2023-08-08T01:17:36;101243.91;;;28.09;50.51
35419;BME280;21525;41.240;16.500;2023-08-08T01:20:04;101248.44;;;28.20;50.15
35419;BME280;21525;41.240;16.500;2023-08-08T01:22:38;101246.22;;;27.91;51.25
35419;BME280;21525;41.240;16.500;2023-08-08T01:25:06;101244.28;;;28.16;50.62
35419;BME280;21525;41.240;16.500;2023-08-08T01:27:32;101247.94;;;28.15;51.13
35419;BME280;21525;41.240;16.500;2023-08-08T01:29:58;101251.22;;;28.07;51.27
35419;BME280;21525;41.240;16.500;2023-08-08T01:32:24;101248.38;;;27.86;50.97
35419;BME280;21525;41.240;16.500;2023-08-08T01:34:50;101252.03;;;27.85;51.24
35419;BME280;21525;41.240;16.500;2023-08-08T01:37:20;101255.44;;;27.98;50.92
35419;BME280;21525;41.240;16.500;2023-08-08T01:39:50;101256.25;;;28.23;50.68
35419;BME280;21525;41.240;16.500;2023-08-08T01:42:22;101248.03;;;27.91;50.88
35419;BME280;21525;41.240;16.500;2023-08-08T01:44:50;101247.41;;;27.87;50.95
35419;BME280;21525;41.240;16.500;2023-08-08T01:47:16;101242.34;;;28.06;50.45
35419;BME280;21525;41.240;16.500;2023-08-08T01:49:42;101245.25;;;27.92;50.53
35419;BME280;21525;41.240;16.500;2023-08-08T01:52:07;101245.66;;;27.40;52.39
35419;BME280;21525;41.240;16.500;2023-08-08T01:54:33;101242.84;;;27.65;51.73
35419;BME280;21525;41.240;16.500;2023-08-08T01:56:59;101244.94;;;27.73;51.73
35419;BME280;21525;41.240;16.500;2023-08-08T01:59:25;101243.28;;;27.83;51.24
35419;BME280;21525;41.240;16.500;2023-08-08T02:01:51;101241.91;;;27.42;52.19
35419;BME280;21525;41.240;16.500;2023-08-08T02:04:20;101239.41;;;27.98;51.17
35419;BME280;21525;41.240;16.500;2023-08-08T02:06:45;101229.72;;;27.62;51.91
35419;BME280;21525;41.240;16.500;2023-08-08T02:09:11;101234.22;;;27.62;51.78
35419;BME280;21525;41.240;16.500;2023-08-08T02:11:40;101238.31;;;27.55;51.94
35419;BME280;21525;41.240;16.500;2023-08-08T02:14:05;101233.34;;;28.07;50.81
35419;BME280;21525;41.240;16.500;2023-08-08T02:16:31;101240.28;;;28.10;50.71
35419;BME280;21525;41.240;16.500;2023-08-08T02:18:57;101238.84;;;27.60;51.78
35419;BME280;21525;41.240;16.500;2023-08-08T02:21:23;101233.50;;;27.60;51.87
35419;BME280;21525;41.240;16.500;2023-08-08T02:23:49;101238.09;;;27.58;52.20
35419;BME280;21525;41.240;16.500;2023-08-08T02:26:14;101244.00;;;27.50;52.25
35419;BME280;21525;41.240;16.500;2023-08-08T02:28:40;101233.25;;;27.39;52.44
35419;BME280;21525;41.240;16.500;2023-08-08T02:31:06;101242.81;;;27.30;53.07
35419;BME280;21525;41.240;16.500;2023-08-08T02:33:32;101234.69;;;27.32;53.05
35419;BME280;21525;41.240;16.500;2023-08-08T02:35:58;101244.28;;;27.34;52.42
35419;BME280;21525;41.240;16.500;2023-08-08T02:38:23;101242.59;;;27.09;53.81
35419;BME280;21525;41.240;16.500;2023-08-08T02:40:49;101242.75;;;27.43;52.89
35419;BME280;21525;41.240;16.500;2023-08-08T02:43:16;101245.88;;;27.37;52.77
35419;BME280;21525;41.240;16.500;2023-08-08T02:45:42;101249.13;;;27.29;52.91
35419;BME280;21525;41.240;16.500;2023-08-08T02:48:08;101249.28;;;27.39;52.67
35419;BME280;21525;41.240;16.500;2023-08-08T02:50:34;101250.78;;;27.19;52.84
35419;BME280;21525;41.240;16.500;2023-08-08T02:53:00;101257.03;;;27.07;53.39
35419;BME280;21525;41.240;16.500;2023-08-08T02:55:32;101250.13;;;27.28;52.88
35419;BME280;21525;41.240;16.500;2023-08-08T02:57:57;101255.91;;;27.22;52.68
35419;BME280;21525;41.240;16.500;2023-08-08T03:00:23;101257.63;;;27.23;52.75
35419;BME280;21525;41.240;16.500;2023-08-08T03:02:52;101253.41;;;27.08;52.99
35419;BME280;21525;41.240;16.500;2023-08-08T03:05:18;101263.72;;;27.36;52.85
35419;BME280;21525;41.240;16.500;2023-08-08T03:07:44;101259.03;;;27.16;52.73
35419;BME280;21525;41.240;16.500;2023-08-08T03:10:12;101269.63;;;27.05;53.14
35419;BME280;21525;41.240;16.500;2023-08-08T03:12:38;101257.97;;;27.30;52.79
35419;BME280;21525;41.240;16.500;2023-08-08T03:15:06;101259.91;;;27.04;53.10
35419;BME280;21525;41.240;16.500;2023-08-08T03:17:32;101260.78;;;27.04;53.14
35419;BME280;21525;41.240;16.500;2023-08-08T03:19:59;101266.38;;;27.25;52.68
35419;BME280;21525;41.240;16.500;2023-08-08T03:22:25;101266.25;;;26.90;52.88
35419;BME280;21525;41.240;16.500;2023-08-08T03:24:51;101272.78;;;26.73;53.40
35419;BME280;21525;41.240;16.500;2023-08-08T03:27:16;101278.50;;;27.05;52.65
35419;BME280;21525;41.240;16.500;2023-08-08T03:29:43;101282.75;;;27.08;52.65
35419;BME280;21525;41.240;16.500;2023-08-08T03:32:09;101276.25;;;27.12;52.50
35419;BME280;21525;41.240;16.500;2023-08-08T03:34:35;101278.34;;;26.70;52.99
35419;BME280;21525;41.240;16.500;2023-08-08T03:37:02;101277.34;;;26.97;52.02
35419;BME280;21525;41.240;16.500;2023-08-08T03:39:28;101279.47;;;27.04;52.25
35419;BME280;21525;41.240;16.500;2023-08-08T03:41:54;101293.22;;;26.62;52.71
35419;BME280;21525;41.240;16.500;2023-08-08T03:44:19;101294.41;;;27.07;52.28
35419;BME280;21525;41.240;16.500;2023-08-08T03:46:45;101294.47;;;27.18;51.59
35419;BME280;21525;41.240;16.500;2023-08-08T03:49:13;101291.47;;;26.86;51.90
35419;BME280;21525;41.240;16.500;2023-08-08T03:51:38;101303.41;;;26.93;51.91
35419;BME280;21525;41.240;16.500;2023-08-08T03:54:04;101303.63;;;26.90;51.58
35419;BME280;21525;41.240;16.500;2023-08-08T03:56:32;101297.34;;;26.78;51.62
35419;BME280;21525;41.240;16.500;2023-08-08T03:58:58;101304.16;;;26.83;52.03
35419;BME280;21525;41.240;16.500;2023-08-08T04:01:23;101310.25;;;26.85;51.69
35419;BME280;21525;41.240;16.500;2023-08-08T04:03:49;101318.25;;;26.85;51.58
35419;BME280;21525;41.240;16.500;2023-08-08T04:06:15;101314.91;;;26.57;52.28
35419;BME280;21525;41.240;16.500;2023-08-08T04:08:41;101308.56;;;26.96;51.10
35419;BME280;21525;41.240;16.500;2023-08-08T04:11:07;101309.28;;;27.59;49.33
35419;BME280;21525;41.240;16.500;2023-08-08T04:13:34;101310.72;;;28.22;48.50
35419;BME280;21525;41.240;16.500;2023-08-08T04:16:00;101313.88;;;28.71;46.69
35419;BME280;21525;41.240;16.500;2023-08-08T04:18:26;101318.44;;;29.48;44.90
35419;BME280;21525;41.240;16.500;2023-08-08T04:20:52;101313.31;;;29.77;43.98
35419;BME280;21525;41.240;16.500;2023-08-08T04:23:18;101314.97;;;29.89;43.83
35419;BME280;21525;41.240;16.500;2023-08-08T04:25:44;101314.84;;;30.62;42.17
35419;BME280;21525;41.240;16.500;2023-08-08T04:28:10;101299.66;;;32.83;38.62
35419;BME280;21525;41.240;16.500;2023-08-08T04:30:35;101313.59;;;32.69;38.12
35419;BME280;21525;41.240;16.500;2023-08-08T04:33:01;101311.59;;;32.44;38.35
35419;BME280;21525;41.240;16.500;2023-08-08T04:35:27;101306.31;;;33.69;36.89
35419;BME280;21525;41.240;16.500;2023-08-08T04:37:53;101302.81;;;34.81;35.20
35419;BME280;21525;41.240;16.500;2023-08-08T04:40:18;101311.13;;;35.46;33.68
35419;BME280;21525;41.240;16.500;2023-08-08T04:42:44;101304.69;;;35.47;33.53
35419;BME280;21525;41.240;16.500;2023-08-08T04:45:10;101314.06;;;35.02;34.61
35419;BME280;21525;41.240;16.500;2023-08-08T04:47:36;101310.78;;;36.38;32.65
35419;BME280;21525;41.240;16.500;2023-08-08T04:50:01;101318.03;;;36.21;32.67
35419;BME280;21525;41.240;16.500;2023-08-08T04:52:27;101313.88;;;37.82;30.62
35419;BME280;21525;41.240;16.500;2023-08-08T04:54:53;101317.50;;;37.28;31.46
35419;BME280;21525;41.240;16.500;2023-08-08T04:57:19;101316.78;;;37.35;31.08
35419;BME280;21525;41.240;16.500;2023-08-08T04:59:44;101326.84;;;37.49;30.93
35419;BME280;21525;41.240;16.500;2023-08-08T05:02:10;101324.91;;;37.35;31.16
35419;BME280;21525;41.240;16.500;2023-08-08T05:04:36;101327.72;;;37.41;30.99
35419;BME280;21525;41.240;16.500;2023-08-08T05:07:02;101327.75;;;38.02;30.02
35419;BME280;21525;41.240;16.500;2023-08-08T05:09:28;101320.19;;;39.15;29.19
35419;BME280;21525;41.240;16.500;2023-08-08T05:11:54;101324.75;;;40.21;28.35
35419;BME280;21525;41.240;16.500;2023-08-08T05:14:19;101328.78;;;40.59;28.09
35419;BME280;21525;41.240;16.500;2023-08-08T05:16:45;101330.53;;;38.90;29.42
35419;BME280;21525;41.240;16.500;2023-08-08T05:19:11;101334.75;;;40.14;28.48
35419;BME280;21525;41.240;16.500;2023-08-08T05:21:37;101340.97;;;38.27;30.27
35419;BME280;21525;41.240;16.500;2023-08-08T05:24:03;101346.53;;;38.63;29.99
35419;BME280;21525;41.240;16.500;2023-08-08T05:26:29;101340.25;;;39.92;28.68
35419;BME280;21525;41.240;16.500;2023-08-08T05:28:55;101347.50;;;39.85;28.73
35419;BME280;21525;41.240;16.500;2023-08-08T05:31:21;101341.53;;;40.24;28.50
35419;BME280;21525;41.240;16.500;2023-08-08T05:33:48;101337.44;;;41.31;27.94
35419;BME280;21525;41.240;16.500;2023-08-08T05:36:14;101338.19;;;42.05;26.98
35419;BME280;21525;41.240;16.500;2023-08-08T05:38:40;101332.56;;;40.65;27.89
35419;BME280;21525;41.240;16.500;2023-08-08T05:41:07;101333.53;;;40.85;27.90
35419;BME280;21525;41.240;16.500;2023-08-08T05:43:33;101337.34;;;41.58;27.60
35419;BME280;21525;41.240;16.500;2023-08-08T05:45:59;101338.66;;;40.33;28.39
35419;BME280;21525;41.240;16.500;2023-08-08T05:48:25;101335.38;;;40.78;28.00
35419;BME280;21525;41.240;16.500;2023-08-08T05:50:51;101339.69;;;41.14;27.76
35419;BME280;21525;41.240;16.500;2023-08-08T05:53:16;101342.13;;;40.82;28.09
35419;BME280;21525;41.240;16.500;2023-08-08T05:55:43;101345.13;;;40.32;28.68
35419;BME280;21525;41.240;16.500;2023-08-08T05:58:09;101344.63;;;40.84;27.91
35419;BME280;21525;41.240;16.500;2023-08-08T06:00:35;101341.56;;;41.07;27.85
35419;BME280;21525;41.240;16.500;2023-08-08T06:03:01;101342.16;;;41.70;27.14
35419;BME280;21525;41.240;16.500;2023-08-08T06:05:27;101350.97;;;41.65;27.25
35419;BME280;21525;41.240;16.500;2023-08-08T06:07:54;101351.03;;;39.22;29.63
35419;BME280;21525;41.240;16.500;2023-08-08T06:10:22;101350.53;;;38.68;30.41
35419;BME280;21525;41.240;16.500;2023-08-08T06:12:48;101355.28;;;38.36;30.76
35419;BME280;21525;41.240;16.500;2023-08-08T06:15:14;101360.53;;;37.31;32.20
35419;BME280;21525;41.240;16.500;2023-08-08T06:17:40;101366.31;;;37.28;32.66
35419;BME280;21525;41.240;16.500;2023-08-08T06:20:06;101359.88;;;37.29;32.40
35419;BME280;21525;41.240;16.500;2023-08-08T06:22:36;101348.13;;;37.60;32.13
35419;BME280;21525;41.240;16.500;2023-08-08T06:25:02;101356.59;;;37.88;31.56
35419;BME280;21525;41.240;16.500;2023-08-08T06:27:28;101360.56;;;37.77;32.28
35419;BME280;21525;41.240;16.500;2023-08-08T06:29:54;101359.16;;;37.67;32.25
35419;BME280;21525;41.240;16.500;2023-08-08T06:32:21;101357.28;;;37.67;32.16
35419;BME280;21525;41.240;16.500;2023-08-08T06:34:47;101363.03;;;37.64;32.77
35419;BME280;21525;41.240;16.500;2023-08-08T06:37:13;101359.72;;;37.54;32.58
35419;BME280;21525;41.240;16.500;2023-08-08T06:39:38;101367.41;;;38.11;31.71
35419;BME280;21525;41.240;16.500;2023-08-08T06:42:05;101366.16;;;37.76;32.11
35419;BME280;21525;41.240;16.500;2023-08-08T06:44:43;101364.16;;;37.47;32.59
35419;BME280;21525;41.240;16.500;2023-08-08T06:50:00;101362.78;;;36.81;33.48
35419;BME280;21525;41.240;16.500;2023-08-08T06:52:25;101373.31;;;37.46;32.66
35419;BME280;21525;41.240;16.500;2023-08-08T06:54:51;101365.50;;;37.96;32.62
35419;BME280;21525;41.240;16.500;2023-08-08T06:57:17;101370.69;;;37.83;32.50
35419;BME280;21525;41.240;16.500;2023-08-08T06:59:43;101371.03;;;37.57;33.14
35419;BME280;21525;41.240;16.500;2023-08-08T07:02:08;101362.72;;;37.59;32.77
35419;BME280;21525;41.240;16.500;2023-08-08T07:04:35;101375.81;;;37.78;32.56
35419;BME280;21525;41.240;16.500;2023-08-08T07:07:02;101371.28;;;37.48;33.07
35419;BME280;21525;41.240;16.500;2023-08-08T07:09:28;101377.56;;;37.09;33.38
35419;BME280;21525;41.240;16.500;2023-08-08T07:11:54;101374.31;;;36.83;33.74
35419;BME280;21525;41.240;16.500;2023-08-08T07:14:19;101379.34;;;36.39;34.23
35419;BME280;21525;41.240;16.500;2023-08-08T07:16:45;101395.75;;;36.05;34.92
35419;BME280;21525;41.240;16.500;2023-08-08T07:19:11;101389.94;;;35.75;35.40
35419;BME280;21525;41.240;16.500;2023-08-08T07:21:37;101394.38;;;35.84;35.19
35419;BME280;21525;41.240;16.500;2023-08-08T07:24:03;101390.13;;;35.65;35.61
35419;BME280;21525;41.240;16.500;2023-08-08T07:26:29;101391.13;;;36.54;34.76
35419;BME280;21525;41.240;16.500;2023-08-08T07:28:55;101392.16;;;36.53;34.54
35419;BME280;21525;41.240;16.500;2023-08-08T07:31:21;101393.63;;;37.19;34.18
35419;BME280;21525;41.240;16.500;2023-08-08T07:33:46;101391.41;;;36.91;33.75
35419;BME280;21525;41.240;16.500;2023-08-08T07:36:12;101392.03;;;37.63;33.03
35419;BME280;21525;41.240;16.500;2023-08-08T07:38:38;101400.75;;;37.82;32.64
35419;BME280;21525;41.240;16.500;2023-08-08T07:41:04;101398.63;;;37.69;33.05
35419;BME280;21525;41.240;16.500;2023-08-08T07:43:29;101396.88;;;37.76;33.06
35419;BME280;21525;41.240;16.500;2023-08-08T07:45:55;101399.75;;;37.52;32.98
35419;BME280;21525;41.240;16.500;2023-08-08T07:48:21;101397.19;;;37.27;32.78
35419;BME280;21525;41.240;16.500;2023-08-08T07:50:46;101395.81;;;37.85;32.43
35419;BME280;21525;41.240;16.500;2023-08-08T07:53:12;101402.00;;;37.71;32.45
35419;BME280;21525;41.240;16.500;2023-08-08T07:55:38;101396.13;;;37.59;32.51
35419;BME280;21525;41.240;16.500;2023-08-08T07:58:03;101389.41;;;37.78;32.58
35419;BME280;21525;41.240;16.500;2023-08-08T08:00:29;101390.84;;;37.89;32.09
35419;BME280;21525;41.240;16.500;2023-08-08T08:02:56;101382.16;;;37.93;32.08
35419;BME280;21525;41.240;16.500;2023-08-08T08:05:21;101395.00;;;38.37;31.17
35419;BME280;21525;41.240;16.500;2023-08-08T08:07:47;101396.28;;;38.12;31.79
35419;BME280;21525;41.240;16.500;2023-08-08T08:10:13;101405.22;;;38.35;31.52
35419;BME280;21525;41.240;16.500;2023-08-08T08:12:40;101408.88;;;38.42;31.59
35419;BME280;21525;41.240;16.500;2023-08-08T08:15:07;101414.38;;;38.72;31.28
35419;BME280;21525;41.240;16.500;2023-08-08T08:17:33;101410.66;;;37.97;32.21
35419;BME280;21525;41.240;16.500;2023-08-08T08:19:59;101412.69;;;37.95;32.27
35419;BME280;21525;41.240;16.500;2023-08-08T08:22:24;101421.50;;;37.97;32.44
35419;BME280;21525;41.240;16.500;2023-08-08T08:24:50;101418.47;;;37.70;32.23
35419;BME280;21525;41.240;16.500;2023-08-08T08:27:17;101417.53;;;37.85;32.15
35419;BME280;21525;41.240;16.500;2023-08-08T08:29:43;101427.34;;;38.47;31.41
35419;BME280;21525;41.240;16.500;2023-08-08T08:32:09;101423.47;;;38.04;32.49
35419;BME280;21525;41.240;16.500;2023-08-08T08:34:35;101427.22;;;38.25;31.89
35419;BME280;21525;41.240;16.500;2023-08-08T08:37:01;101434.19;;;38.28;32.55
35419;BME280;21525;41.240;16.500;2023-08-08T08:39:26;101420.19;;;38.16;32.10
35419;BME280;21525;41.240;16.500;2023-08-08T08:41:59;101433.03;;;37.99;32.78
35419;BME280;21525;41.240;16.500;2023-08-08T08:44:31;101436.59;;;38.23;32.92
35419;BME280;21525;41.240;16.500;2023-08-08T08:47:02;101431.28;;;38.29;32.93
35419;BME280;21525;41.240;16.500;2023-08-08T08:49:31;101432.19;;;38.59;32.45
35419;BME280;21525;41.240;16.500;2023-08-08T08:51:59;101427.16;;;38.34;32.70
35419;BME280;21525;41.240;16.500;2023-08-08T08:54:30;101436.84;;;38.13;33.29
35419;BME280;21525;41.240;16.500;2023-08-08T08:56:57;101434.06;;;37.98;33.51
35419;BME280;21525;41.240;16.500;2023-08-08T08:59:23;101433.22;;;37.98;33.45
35419;BME280;21525;41.240;16.500;2023-08-08T09:01:50;101433.88;;;37.46;33.84
35419;BME280;21525;41.240;16.500;2023-08-08T09:04:18;101436.34;;;37.25;34.59
35419;BME280;21525;41.240;16.500;2023-08-08T09:06:45;101430.25;;;37.15;34.76
35419;BME280;21525;41.240;16.500;2023-08-08T09:09:12;101441.44;;;37.28;34.63
35419;BME280;21525;41.240;16.500;2023-08-08T09:11:38;101435.19;;;37.50;34.31
35419;BME280;21525;41.240;16.500;2023-08-08T09:14:19;101438.84;;;37.65;34.18
35419;BME280;21525;41.240;16.500;2023-08-08T09:16:46;101437.78;;;37.44;34.16
35419;BME280;21525;41.240;16.500;2023-08-08T09:19:14;101446.41;;;37.78;34.25
35419;BME280;21525;41.240;16.500;2023-08-08T09:21:40;101433.91;;;37.69;34.25
35419;BME280;21525;41.240;16.500;2023-08-08T09:24:06;101439.97;;;37.79;34.17
35419;BME280;21525;41.240;16.500;2023-08-08T09:26:32;101447.16;;;37.64;34.64
35419;BME280;21525;41.240;16.500;2023-08-08T09:28:58;101443.97;;;37.29;35.35
35419;BME280;21525;41.240;16.500;2023-08-08T09:31:25;101444.00;;;36.33;35.45
35419;BME280;21525;41.240;16.500;2023-08-08T09:33:53;101449.81;;;35.22;36.21
35419;BME280;21525;41.240;16.500;2023-08-08T09:36:19;101446.94;;;35.65;36.22
35419;BME280;21525;41.240;16.500;2023-08-08T09:38:45;101450.72;;;35.81;36.41
35419;BME280;21525;41.240;16.500;2023-08-08T09:41:12;101458.44;;;35.76;36.62
35419;BME280;21525;41.240;16.500;2023-08-08T09:43:37;101453.47;;;36.21;36.35
35419;BME280;21525;41.240;16.500;2023-08-08T09:46:03;101465.69;;;34.65;38.16
35419;BME280;21525;41.240;16.500;2023-08-08T09:48:30;101459.94;;;35.54;37.09
35419;BME280;21525;41.240;16.500;2023-08-08T09:51:01;101466.53;;;34.65;37.16
35419;BME280;21525;41.240;16.500;2023-08-08T09:53:27;101459.22;;;35.10;37.10
35419;BME280;21525;41.240;16.500;2023-08-08T09:55:57;101464.06;;;34.72;37.04
35419;BME280;21525;41.240;16.500;2023-08-08T09:58:23;101456.22;;;35.55;35.97
35419;BME280;21525;41.240;16.500;2023-08-08T10:00:50;101468.97;;;34.51;36.73
35419;BME280;21525;41.240;16.500;2023-08-08T10:03:16;101470.50;;;32.90;38.96
35419;BME280;21525;41.240;16.500;2023-08-08T10:05:43;101461.19;;;32.65;39.81
35419;BME280;21525;41.240;16.500;2023-08-08T10:08:09;101453.28;;;33.65;38.70
35419;BME280;21525;41.240;16.500;2023-08-08T10:10:37;101463.53;;;34.43;37.39
35419;BME280;21525;41.240;16.500;2023-08-08T10:13:03;101453.00;;;34.83;36.23
35419;BME280;21525;41.240;16.500;2023-08-08T10:15:30;101459.44;;;34.39;36.41
35419;BME280;21525;41.240;16.500;2023-08-08T10:17:57;101460.97;;;33.43;37.81
35419;BME280;21525;41.240;16.500;2023-08-08T10:20:26;101458.59;;;34.38;37.03
35419;BME280;21525;41.240;16.500;2023-08-08T10:22:52;101449.09;;;35.12;35.77
35419;BME280;21525;41.240;16.500;2023-08-08T10:25:26;101455.19;;;34.00;36.59
35419;BME280;21525;41.240;16.500;2023-08-08T10:28:09;101465.69;;;34.03;36.22
35419;BME280;21525;41.240;16.500;2023-08-08T10:31:00;101460.28;;;34.03;36.78
35419;BME280;21525;41.240;16.500;2023-08-08T10:33:42;101460.13;;;33.05;38.27
35419;BME280;21525;41.240;16.500;2023-08-08T10:36:09;101468.38;;;32.84;37.99
35419;BME280;21525;41.240;16.500;2023-08-08T10:38:43;101464.31;;;32.70;38.70
35419;BME280;21525;41.240;16.500;2023-08-08T10:41:18;101464.75;;;32.76;38.29
35419;BME280;21525;41.240;16.500;2023-08-08T10:43:56;101472.81;;;33.50;37.59
35419;BME280;21525;41.240;16.500;2023-08-08T10:46:32;101462.75;;;33.15;37.79
35419;BME280;21525;41.240;16.500;2023-08-08T10:49:01;101469.53;;;32.82;38.26
35419;BME280;21525;41.240;16.500;2023-08-08T10:51:40;101469.19;;;32.48;39.61
35419;BME280;21525;41.240;16.500;2023-08-08T10:54:23;101473.56;;;32.10;40.12
35419;BME280;21525;41.240;16.500;2023-08-08T10:56:54;101476.78;;;32.71;38.68
35419;BME280;21525;41.240;16.500;2023-08-08T10:59:26;101466.22;;;33.07;38.44
35419;BME280;21525;41.240;16.500;2023-08-08T11:01:52;101469.66;;;32.90;38.46
35419;BME280;21525;41.240;16.500;2023-08-08T11:04:21;101480.13;;;33.02;37.56
35419;BME280;21525;41.240;16.500;2023-08-08T11:06:47;101481.66;;;32.29;38.41
35419;BME280;21525;41.240;16.500;2023-08-08T11:09:14;101463.91;;;33.12;37.62
35419;BME280;21525;41.240;16.500;2023-08-08T11:11:41;101465.56;;;33.23;37.17
35419;BME280;21525;41.240;16.500;2023-08-08T11:14:13;101463.31;;;33.73;36.04
35419;BME280;21525;41.240;16.500;2023-08-08T11:16:40;101465.25;;;32.89;37.47
35419;BME280;21525;41.240;16.500;2023-08-08T11:19:07;101472.72;;;32.29;38.33
35419;BME280;21525;41.240;16.500;2023-08-08T11:21:34;101465.31;;;32.79;37.42
35419;BME280;21525;41.240;16.500;2023-08-08T11:24:05;101465.44;;;33.15;36.77
35419;BME280;21525;41.240;16.500;2023-08-08T11:26:36;101461.81;;;32.40;38.56
35419;BME280;21525;41.240;16.500;2023-08-08T11:29:03;101460.06;;;33.15;37.11
35419;BME280;21525;41.240;16.500;2023-08-08T11:31:30;101461.41;;;33.38;37.38
35419;BME280;21525;41.240;16.500;2023-08-08T11:33:57;101461.91;;;32.58;37.84
35419;BME280;21525;41.240;16.500;2023-08-08T11:36:25;101463.06;;;32.75;37.77
35419;BME280;21525;41.240;16.500;2023-08-08T11:38:52;101458.16;;;32.88;37.52
35419;BME280;21525;41.240;16.500;2023-08-08T11:41:21;101458.28;;;33.60;36.32
35419;BME280;21525;41.240;16.500;2023-08-08T11:43:48;101471.59;;;32.41;37.92
35419;BME280;21525;41.240;16.500;2023-08-08T11:46:15;101472.44;;;31.13;39.57
35419;BME280;21525;41.240;16.500;2023-08-08T11:48:41;101464.22;;;32.14;38.05
35419;BME280;21525;41.240;16.500;2023-08-08T11:51:08;101470.13;;;31.79;38.17
35419;BME280;21525;41.240;16.500;2023-08-08T11:53:34;101451.16;;;32.00;38.77
35419;BME280;21525;41.240;16.500;2023-08-08T11:56:02;101466.72;;;32.64;37.44
35419;BME280;21525;41.240;16.500;2023-08-08T11:58:29;101466.19;;;32.12;37.53
35419;BME280;21525;41.240;16.500;2023-08-08T12:00:58;101464.44;;;31.32;39.35
35419;BME280;21525;41.240;16.500;2023-08-08T12:03:27;101462.88;;;31.70;38.69
35419;BME280;21525;41.240;16.500;2023-08-08T12:05:52;101456.81;;;31.87;38.91
35419;BME280;21525;41.240;16.500;2023-08-08T12:08:19;101456.81;;;31.07;39.81
35419;BME280;21525;41.240;16.500;2023-08-08T12:10:49;101457.84;;;32.25;38.43
35419;BME280;21525;41.240;16.500;2023-08-08T12:13:20;101457.19;;;31.23;39.54
35419;BME280;21525;41.240;16.500;2023-08-08T12:15:46;101465.19;;;30.41;41.15
35419;BME280;21525;41.240;16.500;2023-08-08T12:18:12;101457.84;;;31.56;38.82
35419;BME280;21525;41.240;16.500;2023-08-08T12:20:41;101467.56;;;31.87;37.98
35419;BME280;21525;41.240;16.500;2023-08-08T12:23:07;101460.84;;;31.13;38.89
35419;BME280;21525;41.240;16.500;2023-08-08T12:25:32;101465.94;;;30.95;39.33
35419;BME280;21525;41.240;16.500;2023-08-08T12:27:58;101457.41;;;31.41;38.91
35419;BME280;21525;41.240;16.500;2023-08-08T12:30:24;101467.56;;;30.77;39.56
35419;BME280;21525;41.240;16.500;2023-08-08T12:32:50;101467.72;;;31.05;39.46
35419;BME280;21525;41.240;16.500;2023-08-08T12:35:15;101455.19;;;30.85;39.95
35419;BME280;21525;41.240;16.500;2023-08-08T12:37:42;101460.22;;;30.79;39.79
35419;BME280;21525;41.240;16.500;2023-08-08T12:40:08;101462.50;;;30.21;40.92
35419;BME280;21525;41.240;16.500;2023-08-08T12:42:34;101455.66;;;31.30;39.53
35419;BME280;21525;41.240;16.500;2023-08-08T12:45:00;101449.06;;;31.44;38.25